Christmas Island Airport
YPXM : now visible

Airfield :











YOU CAN JOIN US ON...

 
LOGIN :

Register | Disclaimer

   EN    FR    IT 

 









Legend :    VFR   Marginal VFR   IFR   Intensive IFR   Very Intensive IFR
Visi :
Ceiling :
>= 8 km
>= 3000ft
5 to 8 km
1000 to 3000 ft
1500m to 5 km
500 to 1000 ft
800 to 1500m
200 to 500 ft
< 800m
< 200 ft
Symbols :   Thunderstorms  Fog  Heavy snow  Heavy precipitations  Wind > 20 kt






- Airport Elevation : 916 ft
- IATA code : XCH


YPXM - Christmas Island

CURRENT METAR :
  • 050230Z AUTO 12011KT 5000 SHRA SCT003 SCT008 BKN011 23/22 Q1016

EXPIRED METARs :
  • 050216Z AUTO 12013G26KT 6000 RA SCT004 BKN011 OVC029 23/22 Q1016
  • 050200Z AUTO 12011KT 9999 // SCT009 BKN013 OVC029 24/22 Q1016
  • 050130Z AUTO 13013KT 9999 // BKN013 OVC021 OVC027 24/22 Q1016
  • 050100Z AUTO 12012KT 9999 // BKN011 OVC057 24/22 Q1016
  • 050030Z AUTO 15011KT 9999 // BKN011 BKN033 OVC053 24/22 Q1015
  • 050000Z AUTO 15010KT 9999 -SHRA BKN009 BKN016 BKN043 24/22 Q1015

TAF AMD TAF YPXM
Valid from the 05 at 00:00 until the 06 at 00:00 UTC


042303Z 0500/0600 12012KT 9999 -SHRA BKN010 BKN040 INTER 0500/0600 1500 SHRA BKN002
WIIF FIR / Asia



MET'MAP, your aeronautical weather chart ! - Copyright ORBIFLY December 2007 - Disclaimer

ORBIFLY MET'MAP TEAM :

Programming & Development : Alexandra Zaïnal
Concept & original design : Baudouin d'Aumeries
Assistance for programming : Marc-Olivier Méhu
Technical & hardware support : Manuel Goepfert

Contact : metmap@orbifly.com




SOURCES & CREDITS :

   NOAA       Earth
Advisory